Time;durP1;ratioP1;P1;durP2;ratioP2;P2;SDS_P1;SDS_P2;PMS_P1;PMS_P2;Temp;Humidity;BMP_temperature;BMP_pressure;BME280_temperature;BME280_humidity;BME280_pressure;Samples;Min_cycle;Max_cycle;Signal;HPM_P1;HPM_P2
2021/12/11 00:01:57;;;;;;;59.70;27.60;;;5.70;99.90;;;;;;5110226;28;20228;-79
2021/12/11 00:04:29;;;;;;;62.70;29.73;;;5.70;99.90;;;;;;5094048;28;20220;-78
2021/12/11 00:06:57;;;;;;;59.77;29.97;;;5.70;99.90;;;;;;5082919;28;20679;-80
2021/12/11 00:09:28;;;;;;;59.23;29.60;;;5.70;99.90;;;;;;5092223;28;20250;-79
2021/12/11 00:11:58;;;;;;;66.80;29.97;;;5.70;99.90;;;;;;5095098;28;20709;-79
2021/12/11 00:14:28;;;;;;;61.70;29.60;;;5.70;99.90;;;;;;5090935;28;20228;-81
2021/12/11 00:16:55;;;;;;;64.77;30.53;;;5.70;99.90;;;;;;5094118;28;20226;-81
2021/12/11 00:19:26;;;;;;;63.07;29.93;;;5.80;99.90;;;;;;5087893;28;20721;-81
2021/12/11 00:21:54;;;;;;;60.83;28.50;;;5.70;99.90;;;;;;5083975;28;20614;-80
2021/12/11 00:24:26;;;;;;;57.87;28.20;;;5.80;99.90;;;;;;5087038;28;20201;-80
2021/12/11 00:26:58;;;;;;;67.87;30.80;;;5.70;99.90;;;;;;5089645;28;20250;-80
2021/12/11 00:29:28;;;;;;;63.37;29.20;;;5.70;99.90;;;;;;5080262;28;20217;-81
2021/12/11 00:31:58;;;;;;;63.07;29.07;;;5.70;99.90;;;;;;5092092;28;20219;-82
2021/12/11 00:34:25;;;;;;;56.40;27.47;;;5.70;99.90;;;;;;5092456;28;20222;-80
2021/12/11 00:36:54;;;;;;;57.03;29.13;;;5.70;99.90;;;;;;5101410;28;20227;-79
2021/12/11 00:39:21;;;;;;;59.60;29.57;;;5.80;99.90;;;;;;5101222;28;20674;-82
2021/12/11 00:41:53;;;;;;;57.77;28.50;;;5.80;99.90;;;;;;5102038;28;20220;-82
2021/12/11 00:44:23;;;;;;;63.53;28.57;;;5.70;99.90;;;;;;5093283;28;20447;-81
2021/12/11 00:46:49;;;;;;;59.47;27.57;;;5.80;99.90;;;;;;5083830;28;20625;-82
2021/12/11 00:49:19;;;;;;;54.70;28.80;;;5.80;99.90;;;;;;5097084;28;20232;-82
2021/12/11 00:51:49;;;;;;;57.97;27.67;;;5.80;99.90;;;;;;5091820;28;20221;-81
2021/12/11 00:54:16;;;;;;;57.73;26.77;;;5.80;99.90;;;;;;5091482;28;20252;-81
2021/12/11 00:56:45;;;;;;;56.83;28.03;;;5.80;99.90;;;;;;5092555;28;20226;-81
2021/12/11 00:59:16;;;;;;;60.00;27.20;;;5.80;99.90;;;;;;5096332;28;20223;-81
2021/12/11 01:01:49;;;;;;;55.90;27.83;;;5.80;99.90;;;;;;5094931;28;20717;-80
2021/12/11 01:04:19;;;;;;;58.10;27.83;;;5.80;99.90;;;;;;5095962;28;20214;-81
2021/12/11 01:06:50;;;;;;;61.63;28.53;;;5.80;99.90;;;;;;5080817;28;20236;-81
2021/12/11 01:09:18;;;;;;;56.37;28.50;;;5.80;99.90;;;;;;5098288;28;20620;-81
2021/12/11 01:11:49;;;;;;;58.10;29.00;;;5.80;99.90;;;;;;5093625;28;20593;-81
2021/12/11 01:14:24;;;;;;;59.17;29.33;;;5.80;99.90;;;;;;5089568;28;20225;-81
2021/12/11 01:16:57;;;;;;;59.60;29.10;;;5.80;99.90;;;;;;5099024;28;20282;-81
2021/12/11 01:19:28;;;;;;;56.23;27.73;;;5.80;99.90;;;;;;5093292;28;20770;-81
2021/12/11 01:21:58;;;;;;;59.33;28.50;;;5.80;99.90;;;;;;5089727;28;20214;-80
2021/12/11 01:24:41;;;;;;;57.17;27.37;;;5.90;99.90;;;;;;5108425;27;20219;-80
2021/12/11 01:27:10;;;;;;;54.27;26.73;;;5.80;99.90;;;;;;5091920;28;20213;-80
2021/12/11 01:29:37;;;;;;;65.33;29.23;;;5.90;99.90;;;;;;5104837;28;20214;-79
2021/12/11 01:32:07;;;;;;;64.33;29.20;;;5.90;99.90;;;;;;5083884;28;20235;-79
2021/12/11 01:34:35;;;;;;;61.47;28.90;;;5.80;99.90;;;;;;5091120;28;20246;-80
2021/12/11 01:37:03;;;;;;;59.00;27.67;;;5.80;99.90;;;;;;5107860;28;20896;-80
2021/12/11 01:39:33;;;;;;;53.00;26.07;;;5.80;99.90;;;;;;5091545;28;20225;-80
2021/12/11 01:42:01;;;;;;;64.87;29.37;;;5.80;99.90;;;;;;5090775;28;20225;-80
2021/12/11 01:44:31;;;;;;;57.70;27.30;;;5.80;99.90;;;;;;5090157;28;20230;-80
2021/12/11 01:47:02;;;;;;;57.10;27.87;;;5.90;99.90;;;;;;5082356;28;20222;-80
2021/12/11 01:49:31;;;;;;;55.30;27.43;;;5.80;99.90;;;;;;5098201;28;20560;-80
2021/12/11 01:52:00;;;;;;;57.77;27.43;;;5.80;99.90;;;;;;5092941;28;20218;-80
2021/12/11 01:54:32;;;;;;;57.50;26.90;;;5.90;99.90;;;;;;5088265;28;20226;-80
2021/12/11 01:57:03;;;;;;;58.10;26.53;;;5.90;99.90;;;;;;5094963;28;20246;-81
2021/12/11 01:59:32;;;;;;;55.90;27.23;;;5.80;99.90;;;;;;5094175;28;20683;-80
2021/12/11 02:02:03;;;;;;;58.73;27.57;;;5.80;99.90;;;;;;5079559;28;20227;-80
2021/12/11 02:04:38;;;;;;;62.00;28.37;;;5.90;99.90;;;;;;5095448;28;20683;-80
2021/12/11 02:07:09;;;;;;;58.33;27.97;;;5.90;99.90;;;;;;5110194;28;20904;-81
2021/12/11 02:09:38;;;;;;;60.77;29.40;;;5.90;99.90;;;;;;5103244;28;20220;-80
2021/12/11 02:12:10;;;;;;;61.40;28.33;;;5.90;99.90;;;;;;5111365;28;20264;-80
2021/12/11 02:14:44;;;;;;;58.80;27.80;;;5.90;99.90;;;;;;5099028;28;20234;-80
2021/12/11 02:17:17;;;;;;;51.80;25.90;;;5.90;99.90;;;;;;5110211;28;20312;-80
2021/12/11 02:19:48;;;;;;;56.97;28.80;;;5.90;99.90;;;;;;5100830;28;20230;-80
2021/12/11 02:22:19;;;;;;;59.97;27.67;;;5.80;99.90;;;;;;5094251;28;20681;-80
2021/12/11 02:24:49;;;;;;;64.27;27.13;;;5.80;99.90;;;;;;5107446;28;20570;-81
2021/12/11 02:27:19;;;;;;;61.07;27.43;;;5.80;99.90;;;;;;5092201;28;20223;-81
2021/12/11 02:29:50;;;;;;;59.33;27.20;;;5.90;99.90;;;;;;5107102;28;20252;-80
2021/12/11 02:32:26;;;;;;;57.13;27.60;;;5.80;99.90;;;;;;5094387;28;20950;-80
2021/12/11 02:35:02;;;;;;;60.57;27.13;;;5.80;99.90;;;;;;5093484;28;20281;-80
2021/12/11 02:37:37;;;;;;;58.70;27.27;;;5.90;99.90;;;;;;5106723;28;20228;-80
2021/12/11 02:40:17;;;;;;;56.37;26.37;;;5.80;99.90;;;;;;5086823;28;20215;-80
2021/12/11 02:42:52;;;;;;;55.17;25.23;;;5.90;99.90;;;;;;5088698;28;20226;-81
2021/12/11 02:45:23;;;;;;;60.33;28.03;;;5.80;99.90;;;;;;5090072;28;20220;-81
2021/12/11 02:47:53;;;;;;;57.43;26.70;;;5.90;99.90;;;;;;5088879;28;20312;-81
2021/12/11 02:50:24;;;;;;;58.10;27.47;;;5.90;99.90;;;;;;5098743;28;20229;-81
2021/12/11 02:52:59;;;;;;;60.63;28.23;;;5.80;99.90;;;;;;5091559;28;20246;-81
2021/12/11 02:55:33;;;;;;;59.67;28.30;;;5.80;99.90;;;;;;5096117;28;20230;-80
2021/12/11 02:58:04;;;;;;;57.37;26.93;;;5.80;99.90;;;;;;5100471;28;20221;-79
2021/12/11 03:00:34;;;;;;;60.10;27.87;;;5.80;99.90;;;;;;5101242;28;20908;-79
2021/12/11 03:03:07;;;;;;;59.07;27.97;;;5.80;99.90;;;;;;5109447;28;20224;-79
2021/12/11 03:05:40;;;;;;;58.93;26.07;;;5.80;99.90;;;;;;5110804;28;20279;-79
2021/12/11 03:08:11;;;;;;;63.73;28.13;;;5.80;99.90;;;;;;5088755;28;20252;-79
2021/12/11 03:10:40;;;;;;;58.23;26.53;;;5.70;99.90;;;;;;5090956;28;20273;-79
2021/12/11 03:13:07;;;;;;;56.10;25.80;;;5.70;99.90;;;;;;5097645;28;20233;-79
2021/12/11 03:15:34;;;;;;;63.00;27.70;;;5.70;99.90;;;;;;5089106;28;20237;-79
2021/12/11 03:18:03;;;;;;;57.90;28.93;;;5.70;99.90;;;;;;5098791;28;20229;-80
2021/12/11 03:20:32;;;;;;;60.53;27.83;;;5.80;99.90;;;;;;5097087;28;20231;-80
2021/12/11 03:22:59;;;;;;;59.60;28.33;;;5.70;99.90;;;;;;5097737;28;20216;-80
2021/12/11 03:25:29;;;;;;;61.87;28.47;;;5.70;99.90;;;;;;5096945;28;20241;-80
2021/12/11 03:27:58;;;;;;;61.53;28.03;;;5.70;99.90;;;;;;5088778;28;20206;-80
2021/12/11 03:30:27;;;;;;;60.43;28.67;;;5.70;99.90;;;;;;5080534;28;20754;-80
2021/12/11 03:32:57;;;;;;;61.10;27.40;;;5.70;99.90;;;;;;5089118;28;20241;-80
2021/12/11 03:35:26;;;;;;;63.10;30.17;;;5.70;99.90;;;;;;5090352;28;20225;-81
2021/12/11 03:37:53;;;;;;;63.37;28.60;;;5.70;99.90;;;;;;5081678;28;20236;-81
2021/12/11 03:40:21;;;;;;;68.33;29.63;;;5.70;99.90;;;;;;5071380;28;20220;-79
2021/12/11 03:42:51;;;;;;;64.27;29.10;;;5.70;99.90;;;;;;5071042;28;20598;-79
2021/12/11 03:45:22;;;;;;;63.13;27.63;;;5.70;99.90;;;;;;5107550;28;20253;-79
2021/12/11 03:47:52;;;;;;;61.43;28.93;;;5.60;99.90;;;;;;5103567;28;20368;-80
2021/12/11 03:50:20;;;;;;;65.03;28.00;;;5.60;99.90;;;;;;5099134;28;20228;-80
2021/12/11 03:52:50;;;;;;;64.00;29.30;;;5.60;99.90;;;;;;5112633;28;20228;-80
2021/12/11 03:55:20;;;;;;;58.33;27.37;;;5.60;99.90;;;;;;5106526;28;20229;-80
2021/12/11 03:57:48;;;;;;;62.73;28.20;;;5.60;99.90;;;;;;5094407;28;20210;-80
2021/12/11 04:00:19;;;;;;;61.07;28.07;;;5.60;99.90;;;;;;5096338;28;20212;-81
2021/12/11 04:02:47;;;;;;;66.53;28.97;;;5.60;99.90;;;;;;5111344;28;20222;-81
2021/12/11 04:05:14;;;;;;;59.97;28.43;;;5.60;99.90;;;;;;5107155;28;20228;-80
2021/12/11 04:07:43;;;;;;;62.33;27.93;;;5.60;99.90;;;;;;5111974;28;20313;-79
2021/12/11 04:10:13;;;;;;;61.23;27.90;;;5.70;99.90;;;;;;5097761;28;20231;-80
2021/12/11 04:12:40;;;;;;;61.70;29.40;;;5.60;99.90;;;;;;5109349;28;20241;-80
2021/12/11 04:15:10;;;;;;;61.80;30.07;;;5.60;99.90;;;;;;5107606;28;20253;-80
2021/12/11 04:17:37;;;;;;;61.43;28.70;;;5.60;99.90;;;;;;5092757;28;20218;-80
2021/12/11 04:20:10;;;;;;;61.83;28.87;;;5.60;99.90;;;;;;5098721;28;20699;-81
2021/12/11 04:22:37;;;;;;;62.53;28.57;;;5.60;99.90;;;;;;5102054;28;20222;-81
2021/12/11 04:25:05;;;;;;;59.07;26.97;;;5.60;99.90;;;;;;5108050;28;20231;-81
2021/12/11 04:27:32;;;;;;;60.83;27.73;;;5.50;99.90;;;;;;5088932;28;20547;-81
2021/12/11 04:29:59;;;;;;;64.20;28.57;;;5.50;99.90;;;;;;5085633;28;20219;-81
2021/12/11 04:32:31;;;;;;;62.33;29.50;;;5.50;99.90;;;;;;5095753;28;20302;-81
2021/12/11 04:34:57;;;;;;;64.27;28.57;;;5.50;99.90;;;;;;5085991;28;20210;-81
2021/12/11 04:37:29;;;;;;;60.50;28.23;;;5.50;99.90;;;;;;5099629;28;20233;-81
2021/12/11 04:39:59;;;;;;;63.60;30.27;;;5.50;99.90;;;;;;5090642;28;20643;-81
2021/12/11 04:42:37;;;;;;;61.90;28.80;;;5.50;99.90;;;;;;5090468;28;20228;-80
2021/12/11 04:45:07;;;;;;;62.20;28.83;;;5.50;99.90;;;;;;5096464;28;20661;-81
2021/12/11 04:47:40;;;;;;;66.87;28.97;;;5.40;99.90;;;;;;5105019;28;20274;-81
2021/12/11 04:50:20;;;;;;;57.97;26.83;;;5.40;99.90;;;;;;5092968;28;20309;-81
2021/12/11 04:52:54;;;;;;;60.63;27.20;;;5.40;99.90;;;;;;5101649;28;20291;-81
2021/12/11 04:55:50;;;;;;;66.83;28.80;;;5.40;99.90;;;;;;5090994;28;20221;-81
2021/12/11 05:01:29;;;;;;;59.93;27.90;;;5.40;99.90;;;;;;5043727;28;20307;-80
2021/12/11 05:04:16;;;;;;;60.53;27.90;;;5.40;99.90;;;;;;5092702;28;20224;-81
2021/12/11 05:06:52;;;;;;;61.80;28.67;;;5.50;99.90;;;;;;5092396;28;20225;-81
2021/12/11 05:09:26;;;;;;;64.33;30.50;;;5.50;99.90;;;;;;5093572;28;20870;-81
2021/12/11 05:12:09;;;;;;;66.73;27.47;;;5.50;99.90;;;;;;5107602;28;20282;-81
2021/12/11 05:14:37;;;;;;;56.47;26.70;;;5.50;99.90;;;;;;5112337;28;20243;-81
2021/12/11 05:17:06;;;;;;;54.70;27.03;;;5.50;99.90;;;;;;5104333;28;20227;-81
2021/12/11 05:19:34;;;;;;;55.43;26.33;;;5.50;99.90;;;;;;5096442;27;20240;-81
2021/12/11 05:22:04;;;;;;;61.90;27.97;;;5.50;99.90;;;;;;5101294;28;20217;-81
2021/12/11 05:24:31;;;;;;;60.30;28.57;;;5.50;99.90;;;;;;5103168;28;20700;-80
2021/12/11 05:26:58;;;;;;;60.47;28.53;;;5.50;99.90;;;;;;5113642;28;20640;-79
2021/12/11 05:29:25;;;;;;;59.73;27.30;;;5.50;99.90;;;;;;5095742;28;20334;-80
2021/12/11 05:31:52;;;;;;;57.93;27.37;;;5.50;99.90;;;;;;5106979;28;20311;-80
2021/12/11 05:34:19;;;;;;;59.67;27.77;;;5.50;99.90;;;;;;5090272;28;20228;-79
2021/12/11 05:36:47;;;;;;;61.57;28.70;;;5.50;99.90;;;;;;5090452;28;20234;-80
2021/12/11 05:39:17;;;;;;;52.77;26.07;;;5.50;99.90;;;;;;5096356;28;20218;-80
2021/12/11 05:41:47;;;;;;;54.77;27.73;;;5.50;99.90;;;;;;5095046;28;20565;-81
2021/12/11 05:44:15;;;;;;;61.63;29.93;;;5.50;99.90;;;;;;5104722;28;20225;-81
2021/12/11 05:46:42;;;;;;;55.03;27.37;;;5.50;99.90;;;;;;5093053;28;20230;-81
2021/12/11 05:49:09;;;;;;;59.57;27.17;;;5.50;99.90;;;;;;5094748;28;20228;-81
2021/12/11 05:51:39;;;;;;;58.93;27.83;;;5.50;99.90;;;;;;5098577;28;20219;-80
2021/12/11 05:54:10;;;;;;;55.60;27.03;;;5.50;99.90;;;;;;5104605;28;20721;-81
2021/12/11 05:56:40;;;;;;;56.17;28.40;;;5.50;99.90;;;;;;5073630;28;20214;-79
2021/12/11 05:59:11;;;;;;;57.37;27.67;;;5.50;99.90;;;;;;5083636;28;20222;-78
2021/12/11 06:01:40;;;;;;;51.40;24.63;;;5.50;99.90;;;;;;5090505;27;20235;-85
2021/12/11 06:04:10;;;;;;;58.73;27.07;;;5.50;99.90;;;;;;5090008;28;20236;-83
2021/12/11 06:06:38;;;;;;;55.03;25.87;;;5.40;99.90;;;;;;5085327;28;20239;-83
2021/12/11 06:09:09;;;;;;;55.63;27.40;;;5.40;99.90;;;;;;5089032;28;20306;-82
2021/12/11 06:11:36;;;;;;;56.80;25.27;;;5.30;99.90;;;;;;5093699;28;20207;-82
2021/12/11 06:14:04;;;;;;;57.13;25.83;;;5.30;99.90;;;;;;5087485;28;20336;-81
2021/12/11 06:16:30;;;;;;;54.53;25.23;;;5.30;99.90;;;;;;5096248;28;20692;-83
2021/12/11 06:19:02;;;;;;;57.63;27.07;;;5.20;99.90;;;;;;5087920;28;20234;-83
2021/12/11 06:21:29;;;;;;;57.93;27.00;;;5.20;99.90;;;;;;5089063;28;20317;-82
2021/12/11 06:23:56;;;;;;;54.33;26.20;;;5.20;99.90;;;;;;5095302;28;20217;-82
2021/12/11 06:26:24;;;;;;;63.93;29.20;;;5.10;99.90;;;;;;5094980;28;20310;-83
2021/12/11 06:28:51;;;;;;;55.93;26.50;;;5.10;99.90;;;;;;5087021;28;20217;-83
2021/12/11 06:31:19;;;;;;;51.37;26.47;;;5.00;99.90;;;;;;5096098;28;20734;-83
2021/12/11 06:33:46;;;;;;;56.93;25.33;;;5.00;99.90;;;;;;5083960;28;20567;-83
2021/12/11 06:36:14;;;;;;;54.80;26.80;;;4.90;99.90;;;;;;5080954;28;20706;-83
2021/12/11 06:38:42;;;;;;;59.27;26.60;;;4.90;99.90;;;;;;5087585;28;20307;-83
2021/12/11 06:41:12;;;;;;;60.43;28.43;;;4.80;99.90;;;;;;5077809;28;20269;-83
2021/12/11 06:44:03;;;;;;;55.70;27.53;;;4.80;99.90;;;;;;5078703;28;20220;-83
2021/12/11 06:46:30;;;;;;;59.77;28.43;;;4.70;99.90;;;;;;5083836;28;20221;-83
2021/12/11 06:48:57;;;;;;;61.70;27.83;;;4.70;99.90;;;;;;5082004;28;20245;-83
2021/12/11 06:51:24;;;;;;;57.20;26.23;;;4.60;99.90;;;;;;5081008;28;20228;-84
2021/12/11 06:53:54;;;;;;;50.73;24.83;;;4.60;99.90;;;;;;5080488;28;20580;-83
2021/12/11 06:56:22;;;;;;;52.27;24.53;;;4.50;99.90;;;;;;5085112;28;20785;-83
2021/12/11 06:58:51;;;;;;;53.47;25.57;;;4.40;99.90;;;;;;5084711;28;20224;-86
2021/12/11 07:01:21;;;;;;;55.40;26.43;;;4.30;99.90;;;;;;5083638;28;20228;-83
2021/12/11 07:03:48;;;;;;;58.23;27.30;;;4.30;99.90;;;;;;5099695;28;20252;-83
2021/12/11 07:06:16;;;;;;;52.93;25.03;;;4.20;99.90;;;;;;5082104;28;20219;-83
2021/12/11 07:08:43;;;;;;;53.97;25.73;;;4.20;99.90;;;;;;5080065;28;20839;-83
2021/12/11 07:11:12;;;;;;;50.27;25.27;;;4.10;99.90;;;;;;5082027;28;20681;-83
2021/12/11 07:13:40;;;;;;;54.00;24.83;;;4.00;99.90;;;;;;5087436;28;20223;-82
2021/12/11 07:16:09;;;;;;;54.00;26.57;;;4.00;99.90;;;;;;5080845;28;20307;-82
2021/12/11 07:18:36;;;;;;;56.60;26.20;;;4.00;99.90;;;;;;5097883;28;20215;-84
2021/12/11 07:21:05;;;;;;;51.03;24.57;;;3.90;99.90;;;;;;5105825;28;20266;-84
2021/12/11 07:23:32;;;;;;;52.40;24.40;;;3.80;99.90;;;;;;5111111;28;20242;-83
2021/12/11 07:26:02;;;;;;;50.37;23.80;;;3.80;99.90;;;;;;5101847;28;20643;-82
2021/12/11 07:28:30;;;;;;;53.80;24.27;;;3.70;99.90;;;;;;5104670;28;20220;-84
2021/12/11 07:30:59;;;;;;;55.07;26.53;;;3.70;99.90;;;;;;5109215;28;20227;-83
2021/12/11 07:33:27;;;;;;;49.23;23.57;;;3.60;99.90;;;;;;5103716;28;20780;-83
2021/12/11 07:35:54;;;;;;;55.07;24.53;;;3.50;99.90;;;;;;5098802;28;20244;-85
2021/12/11 07:38:22;;;;;;;51.90;24.40;;;3.50;99.90;;;;;;5099509;28;20655;-84
2021/12/11 07:40:53;;;;;;;50.63;24.23;;;3.40;99.90;;;;;;5098906;28;20211;-83
2021/12/11 07:43:21;;;;;;;57.10;25.23;;;3.40;99.90;;;;;;5110944;27;20220;-84
2021/12/11 07:45:48;;;;;;;51.03;24.70;;;3.40;99.90;;;;;;5098512;28;20221;-84
2021/12/11 07:48:16;;;;;;;62.87;26.77;;;3.30;99.90;;;;;;5096273;28;20226;-83
2021/12/11 07:50:45;;;;;;;54.17;26.43;;;3.30;99.90;;;;;;5085810;28;20678;-82
2021/12/11 07:53:12;;;;;;;58.27;27.00;;;3.30;99.90;;;;;;5106889;28;20329;-84
2021/12/11 07:55:40;;;;;;;61.33;27.70;;;3.40;99.90;;;;;;5094425;28;20224;-83
2021/12/11 07:58:07;;;;;;;58.63;25.90;;;3.50;99.90;;;;;;5094851;28;20236;-82
2021/12/11 08:00:38;;;;;;;57.17;27.43;;;3.50;99.90;;;;;;5100991;28;20226;-83
2021/12/11 08:03:06;;;;;;;56.87;26.20;;;3.50;99.90;;;;;;5098063;28;20226;-82
2021/12/11 08:05:33;;;;;;;160.80;31.87;;;3.60;99.90;;;;;;5088194;28;20254;-82
2021/12/11 08:08:03;;;;;;;49.87;23.97;;;3.70;99.90;;;;;;5094362;28;20219;-81
2021/12/11 08:10:32;;;;;;;50.17;25.87;;;3.80;99.90;;;;;;5094651;28;20219;-83
2021/12/11 08:13:00;;;;;;;50.67;25.87;;;3.90;99.90;;;;;;5090087;28;20661;-82
2021/12/11 08:15:27;;;;;;;56.33;27.57;;;4.10;99.90;;;;;;5095204;28;20214;-84
2021/12/11 08:17:55;;;;;;;52.23;24.13;;;4.20;99.90;;;;;;5103800;28;20304;-82
2021/12/11 08:20:24;;;;;;;51.10;25.23;;;4.50;99.90;;;;;;5089726;28;20580;-82
2021/12/11 08:22:51;;;;;;;45.93;23.47;;;4.70;99.90;;;;;;5088502;28;20222;-82
2021/12/11 08:25:20;;;;;;;48.80;23.13;;;5.10;99.90;;;;;;5100688;28;20227;-82
2021/12/11 08:27:47;;;;;;;45.37;22.27;;;5.50;99.90;;;;;;5093506;28;20303;-82
2021/12/11 08:30:15;;;;;;;40.70;21.13;;;6.00;99.90;;;;;;5093930;28;20297;-82
2021/12/11 08:32:42;;;;;;;41.80;22.00;;;6.40;99.90;;;;;;5090513;28;20217;-81
2021/12/11 08:35:11;;;;;;;52.70;21.23;;;6.70;99.90;;;;;;5105062;28;20583;-83
2021/12/11 08:37:40;;;;;;;35.40;19.63;;;6.90;99.90;;;;;;5100573;28;20264;-83
2021/12/11 08:40:11;;;;;;;36.60;18.97;;;7.00;99.90;;;;;;5092998;27;20211;-83
2021/12/11 08:42:40;;;;;;;42.60;20.27;;;7.00;99.90;;;;;;5091232;28;20992;-82
2021/12/11 08:45:11;;;;;;;37.13;19.07;;;7.00;99.90;;;;;;5089421;28;20553;-82
2021/12/11 08:47:40;;;;;;;57.87;20.80;;;6.90;99.90;;;;;;5091102;28;20214;-83
2021/12/11 08:50:11;;;;;;;37.13;20.07;;;6.80;99.90;;;;;;5084392;28;20559;-83
2021/12/11 08:52:41;;;;;;;35.03;19.00;;;6.70;99.90;;;;;;5094320;28;20229;-82
2021/12/11 08:55:11;;;;;;;36.17;18.47;;;6.60;99.90;;;;;;5083223;28;21033;-81
2021/12/11 08:57:41;;;;;;;40.80;19.37;;;6.50;99.90;;;;;;5084811;28;20673;-82
2021/12/11 09:00:17;;;;;;;33.23;18.47;;;6.50;99.90;;;;;;5086562;28;20221;-83
2021/12/11 09:02:49;;;;;;;35.23;17.53;;;6.40;99.90;;;;;;5084142;28;20762;-82
2021/12/11 09:05:21;;;;;;;34.13;17.87;;;6.40;99.90;;;;;;5080206;28;20237;-82
2021/12/11 09:07:51;;;;;;;32.43;17.87;;;6.30;99.90;;;;;;5084674;28;21048;-82
2021/12/11 09:10:22;;;;;;;37.27;18.27;;;6.30;99.90;;;;;;5093612;28;20235;-83
2021/12/11 09:12:54;;;;;;;34.83;19.10;;;6.30;99.90;;;;;;5095265;28;20738;-82
2021/12/11 09:15:25;;;;;;;32.00;18.40;;;6.30;99.90;;;;;;5084195;28;20248;-81
2021/12/11 09:17:56;;;;;;;31.17;17.83;;;6.30;99.90;;;;;;5101039;27;20250;-83
2021/12/11 09:20:26;;;;;;;36.07;19.53;;;6.40;99.90;;;;;;5082114;28;20231;-82
2021/12/11 09:22:58;;;;;;;33.97;18.30;;;6.40;99.90;;;;;;5083553;28;20741;-81
2021/12/11 09:25:30;;;;;;;32.00;16.97;;;6.40;99.90;;;;;;5088663;28;20224;-82
2021/12/11 09:28:02;;;;;;;34.67;17.93;;;6.50;99.90;;;;;;5095756;27;20221;-83
2021/12/11 09:30:36;;;;;;;36.20;19.40;;;6.50;99.90;;;;;;5079656;28;20241;-87
2021/12/11 09:33:08;;;;;;;32.93;17.97;;;6.50;99.90;;;;;;5100111;27;20238;-88
2021/12/11 09:35:39;;;;;;;32.87;17.83;;;6.50;99.90;;;;;;5088081;28;20250;-86
2021/12/11 09:38:10;;;;;;;33.30;19.00;;;6.50;99.90;;;;;;5095140;28;20248;-86
2021/12/11 09:40:55;;;;;;;31.23;17.63;;;6.50;99.90;;;;;;5091894;28;20679;-83
2021/12/11 09:43:40;;;;;;;33.70;18.57;;;6.50;99.90;;;;;;5078113;28;20225;-79
2021/12/11 09:46:11;;;;;;;31.03;17.27;;;6.50;99.90;;;;;;5077372;28;20233;-78
2021/12/11 09:48:40;;;;;;;35.27;18.73;;;6.60;99.90;;;;;;5106156;28;20253;-79
2021/12/11 09:51:14;;;;;;;30.30;16.50;;;6.60;99.90;;;;;;5106726;28;20917;-79
2021/12/11 09:53:44;;;;;;;29.47;17.43;;;6.60;99.90;;;;;;5107908;28;20224;-79
2021/12/11 09:56:16;;;;;;;34.50;20.90;;;6.70;99.90;;;;;;5107330;28;20228;-80
2021/12/11 09:58:45;;;;;;;39.93;28.87;;;6.70;99.90;;;;;;5108588;28;20217;-79
2021/12/11 10:01:14;;;;;;;30.87;18.67;;;6.80;99.90;;;;;;5088217;28;20899;-79
2021/12/11 10:03:47;;;;;;;32.87;18.47;;;6.80;99.90;;;;;;5090403;28;20220;-80
2021/12/11 10:06:37;;;;;;;29.10;17.57;;;6.80;99.90;;;;;;5086534;28;20219;-80
2021/12/11 10:09:17;;;;;;;33.80;16.67;;;6.90;99.90;;;;;;5086999;28;20766;-79
2021/12/11 10:11:47;;;;;;;28.80;16.80;;;6.90;99.90;;;;;;5088442;28;20226;-80
2021/12/11 10:14:18;;;;;;;29.27;17.03;;;6.90;99.90;;;;;;5087385;28;20228;-80
2021/12/11 10:16:48;;;;;;;29.47;16.60;;;6.90;99.90;;;;;;5088108;28;20244;-80
2021/12/11 10:19:20;;;;;;;30.23;17.03;;;6.90;99.90;;;;;;5087933;28;20317;-80
2021/12/11 10:21:50;;;;;;;29.83;16.77;;;7.00;99.90;;;;;;5069442;28;20267;-80
2021/12/11 10:24:22;;;;;;;29.07;16.23;;;7.00;99.90;;;;;;5067386;28;20571;-80
2021/12/11 10:26:50;;;;;;;29.90;16.00;;;7.00;99.90;;;;;;5069345;28;20205;-80
2021/12/11 10:29:18;;;;;;;31.97;16.70;;;7.00;99.90;;;;;;5068286;28;20219;-80
2021/12/11 10:31:48;;;;;;;29.10;16.27;;;7.10;99.90;;;;;;5067042;28;20816;-80
2021/12/11 10:34:18;;;;;;;28.23;15.73;;;7.10;99.90;;;;;;5069484;28;20210;-80
2021/12/11 10:36:49;;;;;;;28.63;15.57;;;7.20;99.90;;;;;;5069208;28;20227;-80
2021/12/11 10:39:17;;;;;;;24.73;14.40;;;7.20;99.90;;;;;;5069683;28;20300;-79
2021/12/11 10:41:44;;;;;;;28.53;15.47;;;7.30;99.90;;;;;;5068056;28;20222;-80
2021/12/11 10:44:14;;;;;;;26.00;15.30;;;7.30;99.90;;;;;;5067468;28;20237;-80
2021/12/11 10:46:45;;;;;;;23.03;14.63;;;7.40;99.90;;;;;;5067539;28;20256;-79
2021/12/11 10:49:14;;;;;;;27.30;15.20;;;7.40;99.90;;;;;;5068577;28;20235;-80
2021/12/11 10:51:44;;;;;;;21.77;13.93;;;7.50;99.90;;;;;;5066911;28;20212;-80
2021/12/11 10:54:13;;;;;;;24.43;14.50;;;7.60;99.90;;;;;;5068695;28;20574;-80
2021/12/11 10:56:41;;;;;;;25.30;13.90;;;7.70;99.90;;;;;;5069047;28;20223;-79
2021/12/11 10:59:12;;;;;;;23.20;15.27;;;7.80;99.90;;;;;;5067501;28;20226;-80
2021/12/11 11:01:43;;;;;;;23.93;15.10;;;7.90;99.90;;;;;;5067931;28;20227;-79
2021/12/11 11:04:14;;;;;;;25.43;15.03;;;7.90;99.90;;;;;;5067647;28;20592;-80
2021/12/11 11:06:45;;;;;;;26.50;14.60;;;8.00;99.90;;;;;;5066760;28;20243;-80
2021/12/11 11:09:13;;;;;;;22.40;14.27;;;8.10;99.90;;;;;;5067344;28;20242;-80
2021/12/11 11:11:41;;;;;;;24.03;13.80;;;8.10;99.90;;;;;;5068599;28;20215;-80
2021/12/11 11:14:10;;;;;;;22.97;13.37;;;8.20;99.90;;;;;;5066890;28;20332;-80
2021/12/11 11:16:41;;;;;;;23.37;14.33;;;8.20;99.90;;;;;;5067081;28;20233;-79
2021/12/11 11:19:09;;;;;;;22.43;13.60;;;8.20;99.90;;;;;;5067188;28;20232;-80
2021/12/11 11:21:40;;;;;;;19.40;12.90;;;8.20;99.90;;;;;;5068648;28;20212;-80
2021/12/11 11:24:08;;;;;;;21.87;12.93;;;8.20;99.90;;;;;;5067371;28;20226;-79
2021/12/11 11:26:38;;;;;;;20.83;12.97;;;8.20;99.90;;;;;;5066853;28;20306;-79
2021/12/11 11:29:07;;;;;;;22.07;13.20;;;8.20;99.90;;;;;;5067411;28;20219;-80
2021/12/11 11:31:36;;;;;;;19.40;12.40;;;8.10;99.90;;;;;;5068167;28;20233;-80
2021/12/11 11:34:04;;;;;;;18.17;11.67;;;8.10;99.90;;;;;;5066813;28;20858;-80
2021/12/11 11:36:33;;;;;;;18.87;12.50;;;8.10;99.90;;;;;;5066817;28;20250;-79
2021/12/11 11:39:05;;;;;;;23.73;13.67;;;8.10;99.90;;;;;;5068524;28;20226;-80
2021/12/11 11:41:34;;;;;;;22.40;13.87;;;8.10;99.90;;;;;;5066717;28;20227;-79
2021/12/11 11:44:02;;;;;;;18.87;12.47;;;8.00;99.90;;;;;;5066345;28;20320;-79
2021/12/11 11:46:30;;;;;;;22.93;13.17;;;8.00;99.90;;;;;;5068484;28;20204;-79
2021/12/11 11:48:59;;;;;;;18.37;12.93;;;8.00;99.90;;;;;;5071205;28;20313;-79
2021/12/11 11:51:30;;;;;;;18.87;12.60;;;8.00;99.90;;;;;;5087100;28;20272;-80
2021/12/11 11:53:58;;;;;;;20.53;12.17;;;8.00;99.90;;;;;;5087364;28;20596;-80
2021/12/11 11:56:28;;;;;;;18.70;12.03;;;8.00;99.90;;;;;;5086236;28;20263;-80
2021/12/11 11:58:55;;;;;;;21.30;12.57;;;8.00;99.90;;;;;;5087364;28;20219;-79
2021/12/11 12:01:26;;;;;;;18.27;12.37;;;8.00;99.90;;;;;;5087973;28;20233;-79
2021/12/11 12:03:53;;;;;;;19.20;12.03;;;8.00;99.90;;;;;;5088554;28;20288;-80
2021/12/11 12:06:25;;;;;;;18.60;12.00;;;8.00;99.90;;;;;;5091869;28;20214;-80
2021/12/11 12:08:54;;;;;;;19.60;11.87;;;8.00;99.90;;;;;;5091900;28;20236;-79
2021/12/11 12:11:23;;;;;;;20.20;12.77;;;8.00;99.90;;;;;;5092109;28;21001;-80
2021/12/11 12:13:50;;;;;;;20.07;12.30;;;8.00;99.90;;;;;;5091902;28;20312;-80
2021/12/11 12:16:18;;;;;;;20.03;12.40;;;8.10;99.90;;;;;;5090825;28;20223;-79
2021/12/11 12:18:46;;;;;;;20.63;12.83;;;8.10;99.90;;;;;;5090126;28;20702;-79
2021/12/11 12:21:15;;;;;;;18.10;11.73;;;8.20;99.90;;;;;;5092267;28;20581;-80
2021/12/11 12:23:43;;;;;;;21.57;12.43;;;8.20;99.90;;;;;;5090618;28;20227;-80
2021/12/11 12:26:14;;;;;;;16.37;11.47;;;8.30;99.90;;;;;;5091584;28;20230;-79
2021/12/11 12:28:43;;;;;;;16.70;10.77;;;8.30;99.90;;;;;;5090765;28;20216;-80
2021/12/11 12:31:14;;;;;;;20.20;11.10;;;8.40;99.90;;;;;;5089719;28;20228;-80
2021/12/11 12:33:41;;;;;;;17.53;11.57;;;8.40;99.90;;;;;;5091653;28;20207;-79
2021/12/11 12:36:08;;;;;;;15.77;10.63;;;8.50;99.90;;;;;;5091562;28;20207;-79
2021/12/11 12:38:39;;;;;;;17.80;10.93;;;8.50;99.90;;;;;;5090524;28;20219;-80
2021/12/11 12:41:10;;;;;;;16.60;11.30;;;8.50;99.90;;;;;;5085293;28;20592;-79
2021/12/11 12:44:16;;;;;;;15.47;10.03;;;8.60;99.90;;;;;;5069611;28;20239;-80
2021/12/11 12:46:49;;;;;;;15.97;10.77;;;8.60;99.90;;;;;;5070265;28;20226;-79
2021/12/11 12:49:17;;;;;;;18.20;10.23;;;8.60;99.90;;;;;;5069671;28;20227;-80
2021/12/11 12:51:45;;;;;;;16.23;10.73;;;8.60;99.90;;;;;;5069649;28;20248;-79
2021/12/11 12:54:14;;;;;;;13.97;9.47;;;8.60;99.90;;;;;;5070878;28;20210;-79